sensor_id;sensor_type;location;lat;lon;timestamp;pressure;altitude;pressure_sealevel;temperature;humidity
63281;BME280;49406;51.044;3.766;2023-05-07T00:00:58;101586.13;;;16.34;100.00
63281;BME280;49406;51.044;3.766;2023-05-07T00:03:33;101587.55;;;16.27;100.00
63281;BME280;49406;51.044;3.766;2023-05-07T00:06:07;101585.82;;;16.20;100.00
63281;BME280;49406;51.044;3.766;2023-05-07T00:08:43;101584.60;;;16.15;100.00
63281;BME280;49406;51.044;3.766;2023-05-07T00:11:16;101586.36;;;16.11;100.00
63281;BME280;49406;51.044;3.766;2023-05-07T00:13:50;101583.02;;;16.07;100.00
63281;BME280;49406;51.044;3.766;2023-05-07T00:16:24;101584.98;;;16.02;100.00
63281;BME280;49406;51.044;3.766;2023-05-07T00:18:59;101585.70;;;16.00;100.00
63281;BME280;49406;51.044;3.766;2023-05-07T00:21:33;101586.95;;;15.97;100.00
63281;BME280;49406;51.044;3.766;2023-05-07T00:24:08;101588.70;;;15.98;100.00
63281;BME280;49406;51.044;3.766;2023-05-07T00:26:42;101584.44;;;16.05;100.00
63281;BME280;49406;51.044;3.766;2023-05-07T00:29:17;101577.58;;;16.02;100.00
63281;BME280;49406;51.044;3.766;2023-05-07T00:31:51;101576.36;;;16.00;100.00
63281;BME280;49406;51.044;3.766;2023-05-07T00:34:27;101576.54;;;15.98;100.00
63281;BME280;49406;51.044;3.766;2023-05-07T00:37:02;101569.11;;;15.94;100.00
63281;BME280;49406;51.044;3.766;2023-05-07T00:39:36;101569.66;;;15.91;100.00
63281;BME280;49406;51.044;3.766;2023-05-07T00:42:11;101568.98;;;15.84;100.00
63281;BME280;49406;51.044;3.766;2023-05-07T00:44:45;101574.29;;;15.81;100.00
63281;BME280;49406;51.044;3.766;2023-05-07T00:47:20;101570.41;;;15.80;100.00
63281;BME280;49406;51.044;3.766;2023-05-07T00:49:54;101567.05;;;15.79;100.00
63281;BME280;49406;51.044;3.766;2023-05-07T00:52:29;101565.10;;;15.76;100.00
63281;BME280;49406;51.044;3.766;2023-05-07T00:55:06;101565.63;;;15.76;100.00
63281;BME280;49406;51.044;3.766;2023-05-07T00:57:41;101564.75;;;15.84;100.00
63281;BME280;49406;51.044;3.766;2023-05-07T01:00:16;101564.23;;;15.82;100.00
63281;BME280;49406;51.044;3.766;2023-05-07T01:02:51;101558.23;;;15.77;100.00
63281;BME280;49406;51.044;3.766;2023-05-07T01:05:25;101561.58;;;15.73;100.00
63281;BME280;49406;51.044;3.766;2023-05-07T01:08:01;101559.83;;;15.69;100.00
63281;BME280;49406;51.044;3.766;2023-05-07T01:10:36;101557.55;;;15.61;100.00
63281;BME280;49406;51.044;3.766;2023-05-07T01:13:11;101556.29;;;15.55;100.00
63281;BME280;49406;51.044;3.766;2023-05-07T01:15:46;101556.30;;;15.51;100.00
63281;BME280;49406;51.044;3.766;2023-05-07T01:18:21;101555.59;;;15.49;100.00
63281;BME280;49406;51.044;3.766;2023-05-07T01:20:57;101554.54;;;15.51;100.00
63281;BME280;49406;51.044;3.766;2023-05-07T01:23:32;101551.88;;;15.58;100.00
63281;BME280;49406;51.044;3.766;2023-05-07T01:26:08;101544.84;;;15.54;100.00
63281;BME280;49406;51.044;3.766;2023-05-07T01:28:42;101540.97;;;15.48;100.00
63281;BME280;49406;51.044;3.766;2023-05-07T01:31:17;101542.54;;;15.43;100.00
63281;BME280;49406;51.044;3.766;2023-05-07T01:33:50;101542.73;;;15.37;100.00
63281;BME280;49406;51.044;3.766;2023-05-07T01:36:26;101546.43;;;15.27;100.00
63281;BME280;49406;51.044;3.766;2023-05-07T01:39:03;101543.79;;;15.19;100.00
63281;BME280;49406;51.044;3.766;2023-05-07T01:41:38;101547.48;;;15.11;100.00
63281;BME280;49406;51.044;3.766;2023-05-07T01:44:13;101547.83;;;15.05;100.00
63281;BME280;49406;51.044;3.766;2023-05-07T01:46:48;101546.77;;;15.08;100.00
63281;BME280;49406;51.044;3.766;2023-05-07T01:49:23;101549.06;;;15.05;100.00
63281;BME280;49406;51.044;3.766;2023-05-07T01:51:58;101548.02;;;15.01;100.00
63281;BME280;49406;51.044;3.766;2023-05-07T01:54:33;101546.08;;;15.00;100.00
63281;BME280;49406;51.044;3.766;2023-05-07T01:57:08;101542.91;;;15.00;100.00
63281;BME280;49406;51.044;3.766;2023-05-07T01:59:42;101540.63;;;14.99;100.00
63281;BME280;49406;51.044;3.766;2023-05-07T02:02:16;101539.20;;;14.97;100.00
63281;BME280;49406;51.044;3.766;2023-05-07T02:04:51;101544.49;;;14.98;100.00
63281;BME280;49406;51.044;3.766;2023-05-07T02:07:25;101544.13;;;14.95;100.00
63281;BME280;49406;51.044;3.766;2023-05-07T02:10:00;101548.16;;;14.92;100.00
63281;BME280;49406;51.044;3.766;2023-05-07T02:12:34;101548.52;;;14.91;100.00
63281;BME280;49406;51.044;3.766;2023-05-07T02:15:10;101549.92;;;14.86;100.00
63281;BME280;49406;51.044;3.766;2023-05-07T02:18:01;101544.11;;;14.87;100.00
63281;BME280;49406;51.044;3.766;2023-05-07T02:20:36;101541.83;;;14.91;100.00
63281;BME280;49406;51.044;3.766;2023-05-07T02:23:10;101541.30;;;14.88;100.00
63281;BME280;49406;51.044;3.766;2023-05-07T02:25:45;101540.59;;;14.85;100.00
63281;BME280;49406;51.044;3.766;2023-05-07T02:28:20;101541.83;;;14.82;100.00
63281;BME280;49406;51.044;3.766;2023-05-07T02:30:54;101545.70;;;14.80;100.00
63281;BME280;49406;51.044;3.766;2023-05-07T02:33:28;101548.51;;;14.80;100.00
63281;BME280;49406;51.044;3.766;2023-05-07T02:36:11;101552.21;;;14.80;100.00
63281;BME280;49406;51.044;3.766;2023-05-07T02:38:45;101553.94;;;14.74;100.00
63281;BME280;49406;51.044;3.766;2023-05-07T02:41:20;101554.81;;;14.70;100.00
63281;BME280;49406;51.044;3.766;2023-05-07T02:43:54;101554.11;;;14.71;100.00
63281;BME280;49406;51.044;3.766;2023-05-07T02:46:29;101556.94;;;14.77;100.00
63281;BME280;49406;51.044;3.766;2023-05-07T02:49:03;101561.17;;;14.78;100.00
63281;BME280;49406;51.044;3.766;2023-05-07T02:51:38;101558.54;;;14.78;100.00
63281;BME280;49406;51.044;3.766;2023-05-07T02:54:12;101560.83;;;14.79;100.00
63281;BME280;49406;51.044;3.766;2023-05-07T02:56:46;101559.58;;;14.78;100.00
63281;BME280;49406;51.044;3.766;2023-05-07T02:59:21;101562.91;;;14.75;100.00
63281;BME280;49406;51.044;3.766;2023-05-07T03:01:55;101559.73;;;14.74;100.00
63281;BME280;49406;51.044;3.766;2023-05-07T03:04:29;101566.95;;;14.73;100.00
63281;BME280;49406;51.044;3.766;2023-05-07T03:07:04;101566.61;;;14.73;100.00
63281;BME280;49406;51.044;3.766;2023-05-07T03:09:37;101566.08;;;14.73;100.00
63281;BME280;49406;51.044;3.766;2023-05-07T03:12:11;101562.06;;;14.79;100.00
63281;BME280;49406;51.044;3.766;2023-05-07T03:14:45;101559.77;;;14.78;100.00
63281;BME280;49406;51.044;3.766;2023-05-07T03:17:20;101556.92;;;14.74;100.00
63281;BME280;49406;51.044;3.766;2023-05-07T03:19:54;101557.63;;;14.70;100.00
63281;BME280;49406;51.044;3.766;2023-05-07T03:22:29;101558.33;;;14.68;100.00
63281;BME280;49406;51.044;3.766;2023-05-07T03:25:03;101561.14;;;14.64;100.00
63281;BME280;49406;51.044;3.766;2023-05-07T03:27:38;101560.58;;;14.60;100.00
63281;BME280;49406;51.044;3.766;2023-05-07T03:30:13;101558.66;;;14.61;100.00
63281;BME280;49406;51.044;3.766;2023-05-07T03:32:48;101562.51;;;14.59;100.00
63281;BME280;49406;51.044;3.766;2023-05-07T03:35:22;101560.60;;;14.63;100.00
63281;BME280;49406;51.044;3.766;2023-05-07T03:37:57;101561.33;;;14.71;100.00
63281;BME280;49406;51.044;3.766;2023-05-07T03:40:31;101562.20;;;14.73;100.00
63281;BME280;49406;51.044;3.766;2023-05-07T03:43:05;101563.26;;;14.73;100.00
63281;BME280;49406;51.044;3.766;2023-05-07T03:45:40;101561.67;;;14.73;100.00
63281;BME280;49406;51.044;3.766;2023-05-07T03:48:14;101561.67;;;14.73;100.00
63281;BME280;49406;51.044;3.766;2023-05-07T03:50:48;101559.73;;;14.67;100.00
63281;BME280;49406;51.044;3.766;2023-05-07T03:53:23;101560.09;;;14.63;100.00
63281;BME280;49406;51.044;3.766;2023-05-07T03:55:57;101563.21;;;14.59;100.00
63281;BME280;49406;51.044;3.766;2023-05-07T03:58:32;101565.33;;;14.56;100.00
63281;BME280;49406;51.044;3.766;2023-05-07T04:01:06;101565.48;;;14.53;100.00
63281;BME280;49406;51.044;3.766;2023-05-07T04:03:41;101568.14;;;14.54;100.00
63281;BME280;49406;51.044;3.766;2023-05-07T04:06:16;101569.38;;;14.60;100.00
63281;BME280;49406;51.044;3.766;2023-05-07T04:08:51;101568.50;;;14.60;100.00
63281;BME280;49406;51.044;3.766;2023-05-07T04:11:25;101566.91;;;14.59;100.00
63281;BME280;49406;51.044;3.766;2023-05-07T04:13:58;101570.25;;;14.59;100.00
63281;BME280;49406;51.044;3.766;2023-05-07T04:16:34;101568.84;;;14.59;100.00
63281;BME280;49406;51.044;3.766;2023-05-07T04:19:08;101568.50;;;14.59;100.00
63281;BME280;49406;51.044;3.766;2023-05-07T04:21:42;101570.10;;;14.60;100.00
63281;BME280;49406;51.044;3.766;2023-05-07T04:24:17;101571.34;;;14.65;100.00
63281;BME280;49406;51.044;3.766;2023-05-07T04:26:51;101574.35;;;14.67;100.00
63281;BME280;49406;51.044;3.766;2023-05-07T04:29:26;101578.21;;;14.69;100.00
63281;BME280;49406;51.044;3.766;2023-05-07T04:32:01;101578.22;;;14.72;100.00
63281;BME280;49406;51.044;3.766;2023-05-07T04:34:35;101578.77;;;14.81;100.00
63281;BME280;49406;51.044;3.766;2023-05-07T04:37:10;101579.84;;;14.88;100.00
63281;BME280;49406;51.044;3.766;2023-05-07T04:39:44;101581.95;;;14.92;100.00
63281;BME280;49406;51.044;3.766;2023-05-07T04:42:19;101582.15;;;14.94;100.00
63281;BME280;49406;51.044;3.766;2023-05-07T04:44:55;101586.58;;;14.96;100.00
63281;BME280;49406;51.044;3.766;2023-05-07T04:47:29;101594.14;;;14.99;100.00
63281;BME280;49406;51.044;3.766;2023-05-07T04:50:04;101595.91;;;14.99;100.00
63281;BME280;49406;51.044;3.766;2023-05-07T04:52:39;101598.55;;;14.98;100.00
63281;BME280;49406;51.044;3.766;2023-05-07T04:55:13;101599.05;;;14.95;100.00
63281;BME280;49406;51.044;3.766;2023-05-07T04:57:48;101599.24;;;14.98;100.00
63281;BME280;49406;51.044;3.766;2023-05-07T05:00:22;101603.66;;;15.08;100.00
63281;BME280;49406;51.044;3.766;2023-05-07T05:02:58;101599.25;;;15.10;100.00
63281;BME280;49406;51.044;3.766;2023-05-07T05:05:32;101602.09;;;15.13;100.00
63281;BME280;49406;51.044;3.766;2023-05-07T05:08:07;101598.05;;;15.17;100.00
63281;BME280;49406;51.044;3.766;2023-05-07T05:10:41;101602.45;;;15.22;100.00
63281;BME280;49406;51.044;3.766;2023-05-07T05:13:16;101609.66;;;15.24;100.00
63281;BME280;49406;51.044;3.766;2023-05-07T05:15:51;101613.72;;;15.24;100.00
63281;BME280;49406;51.044;3.766;2023-05-07T05:18:25;101616.71;;;15.24;100.00
63281;BME280;49406;51.044;3.766;2023-05-07T05:20:59;101615.66;;;15.22;100.00
63281;BME280;49406;51.044;3.766;2023-05-07T05:23:34;101614.09;;;15.30;100.00
63281;BME280;49406;51.044;3.766;2023-05-07T05:26:08;101618.84;;;15.38;100.00
63281;BME280;49406;51.044;3.766;2023-05-07T05:28:43;101618.14;;;15.41;100.00
63281;BME280;49406;51.044;3.766;2023-05-07T05:31:18;101622.02;;;15.42;100.00
63281;BME280;49406;51.044;3.766;2023-05-07T05:33:52;101624.65;;;15.43;100.00
63281;BME280;49406;51.044;3.766;2023-05-07T05:36:26;101628.19;;;15.39;100.00
63281;BME280;49406;51.044;3.766;2023-05-07T05:39:01;101637.35;;;15.31;100.00
63281;BME280;49406;51.044;3.766;2023-05-07T05:41:35;101633.45;;;15.25;100.00
63281;BME280;49406;51.044;3.766;2023-05-07T05:44:10;101639.80;;;15.19;100.00
63281;BME280;49406;51.044;3.766;2023-05-07T05:46:44;101642.61;;;15.20;100.00
63281;BME280;49406;51.044;3.766;2023-05-07T05:49:18;101645.95;;;15.24;100.00
63281;BME280;49406;51.044;3.766;2023-05-07T05:51:53;101642.95;;;15.25;100.00
63281;BME280;49406;51.044;3.766;2023-05-07T05:54:28;101646.66;;;15.26;100.00
63281;BME280;49406;51.044;3.766;2023-05-07T05:57:03;101644.36;;;15.26;100.00
63281;BME280;49406;51.044;3.766;2023-05-07T05:59:39;101652.31;;;15.27;100.00
63281;BME280;49406;51.044;3.766;2023-05-07T06:02:13;101649.30;;;15.26;100.00
63281;BME280;49406;51.044;3.766;2023-05-07T06:04:47;101651.41;;;15.23;100.00
63281;BME280;49406;51.044;3.766;2023-05-07T06:07:22;101656.35;;;15.20;100.00
63281;BME280;49406;51.044;3.766;2023-05-07T06:09:56;101659.52;;;15.16;100.00
63281;BME280;49406;51.044;3.766;2023-05-07T06:12:31;101661.98;;;15.14;100.00
63281;BME280;49406;51.044;3.766;2023-05-07T06:15:07;101664.09;;;15.15;100.00
63281;BME280;49406;51.044;3.766;2023-05-07T06:17:41;101666.73;;;15.15;100.00
63281;BME280;49406;51.044;3.766;2023-05-07T06:20:16;101666.38;;;15.17;100.00
63281;BME280;49406;51.044;3.766;2023-05-07T06:22:50;101672.91;;;15.19;100.00
63281;BME280;49406;51.044;3.766;2023-05-07T06:25:25;101671.29;;;15.11;100.00
63281;BME280;49406;51.044;3.766;2023-05-07T06:27:59;101672.53;;;15.11;100.00
63281;BME280;49406;51.044;3.766;2023-05-07T06:30:33;101673.42;;;15.14;100.00
63281;BME280;49406;51.044;3.766;2023-05-07T06:33:08;101675.54;;;15.13;100.00
63281;BME280;49406;51.044;3.766;2023-05-07T06:35:42;101677.13;;;15.15;100.00
63281;BME280;49406;51.044;3.766;2023-05-07T06:38:17;101678.71;;;15.20;100.00
63281;BME280;49406;51.044;3.766;2023-05-07T06:40:51;101680.13;;;15.24;100.00
63281;BME280;49406;51.044;3.766;2023-05-07T06:43:28;101677.48;;;15.25;100.00
63281;BME280;49406;51.044;3.766;2023-05-07T06:46:02;101681.02;;;15.27;100.00
63281;BME280;49406;51.044;3.766;2023-05-07T06:48:37;101678.92;;;15.29;100.00
63281;BME280;49406;51.044;3.766;2023-05-07T06:51:11;101680.34;;;15.31;100.00
63281;BME280;49406;51.044;3.766;2023-05-07T06:53:45;101685.80;;;15.33;100.00
63281;BME280;49406;51.044;3.766;2023-05-07T06:56:20;101685.63;;;15.35;100.00
63281;BME280;49406;51.044;3.766;2023-05-07T06:58:55;101686.15;;;15.39;100.00
63281;BME280;49406;51.044;3.766;2023-05-07T07:01:30;101686.33;;;15.43;100.00
63281;BME280;49406;51.044;3.766;2023-05-07T07:04:05;101684.23;;;15.48;100.00
63281;BME280;49406;51.044;3.766;2023-05-07T07:06:39;101683.01;;;15.52;100.00
63281;BME280;49406;51.044;3.766;2023-05-07T07:09:14;101685.66;;;15.57;100.00
63281;BME280;49406;51.044;3.766;2023-05-07T07:11:48;101685.88;;;15.63;100.00
63281;BME280;49406;51.044;3.766;2023-05-07T07:14:23;101689.41;;;15.63;100.00
63281;BME280;49406;51.044;3.766;2023-05-07T07:16:57;101686.59;;;15.63;100.00
63281;BME280;49406;51.044;3.766;2023-05-07T07:19:32;101687.47;;;15.64;100.00
63281;BME280;49406;51.044;3.766;2023-05-07T07:22:06;101690.29;;;15.71;100.00
63281;BME280;49406;51.044;3.766;2023-05-07T07:24:40;101689.05;;;15.72;100.00
63281;BME280;49406;51.044;3.766;2023-05-07T07:27:15;101688.87;;;15.73;100.00
63281;BME280;49406;51.044;3.766;2023-05-07T07:29:49;101690.45;;;15.73;100.00
63281;BME280;49406;51.044;3.766;2023-05-07T07:32:24;101688.86;;;15.76;100.00
63281;BME280;49406;51.044;3.766;2023-05-07T07:34:58;101690.27;;;15.78;100.00
63281;BME280;49406;51.044;3.766;2023-05-07T07:37:33;101693.80;;;15.78;100.00
63281;BME280;49406;51.044;3.766;2023-05-07T07:40:09;101690.98;;;15.78;100.00
63281;BME280;49406;51.044;3.766;2023-05-07T07:42:44;101692.77;;;15.80;100.00
63281;BME280;49406;51.044;3.766;2023-05-07T07:45:18;101696.99;;;15.84;100.00
63281;BME280;49406;51.044;3.766;2023-05-07T07:47:53;101696.11;;;15.87;100.00
63281;BME280;49406;51.044;3.766;2023-05-07T07:50:28;101697.33;;;15.90;100.00
63281;BME280;49406;51.044;3.766;2023-05-07T07:53:02;101701.91;;;15.93;100.00
63281;BME280;49406;51.044;3.766;2023-05-07T07:55:40;101702.44;;;15.92;100.00
63281;BME280;49406;51.044;3.766;2023-05-07T07:58:15;101702.63;;;15.87;100.00
63281;BME280;49406;51.044;3.766;2023-05-07T08:00:49;101707.75;;;15.85;100.00
63281;BME280;49406;51.044;3.766;2023-05-07T08:03:24;101706.52;;;15.83;100.00
63281;BME280;49406;51.044;3.766;2023-05-07T08:05:58;101707.58;;;15.83;100.00
63281;BME280;49406;51.044;3.766;2023-05-07T08:08:33;101705.81;;;15.82;100.00
63281;BME280;49406;51.044;3.766;2023-05-07T08:11:07;101706.34;;;15.87;100.00
63281;BME280;49406;51.044;3.766;2023-05-07T08:13:41;101709.50;;;15.89;100.00
63281;BME280;49406;51.044;3.766;2023-05-07T08:16:16;101713.56;;;15.89;100.00
63281;BME280;49406;51.044;3.766;2023-05-07T08:18:50;101712.14;;;15.90;100.00
63281;BME280;49406;51.044;3.766;2023-05-07T08:21:25;101714.98;;;15.88;100.00
63281;BME280;49406;51.044;3.766;2023-05-07T08:23:59;101719.20;;;15.88;100.00
63281;BME280;49406;51.044;3.766;2023-05-07T08:26:34;101722.90;;;15.91;100.00
63281;BME280;49406;51.044;3.766;2023-05-07T08:29:09;101724.48;;;15.91;100.00
63281;BME280;49406;51.044;3.766;2023-05-07T08:31:43;101726.60;;;15.93;100.00
63281;BME280;49406;51.044;3.766;2023-05-07T08:34:17;101729.42;;;15.93;100.00
63281;BME280;49406;51.044;3.766;2023-05-07T08:36:52;101732.60;;;15.92;100.00
63281;BME280;49406;51.044;3.766;2023-05-07T08:39:26;101734.56;;;15.97;100.00
63281;BME280;49406;51.044;3.766;2023-05-07T08:42:01;101736.15;;;15.99;100.00
63281;BME280;49406;51.044;3.766;2023-05-07T08:44:39;101736.14;;;16.00;100.00
63281;BME280;49406;51.044;3.766;2023-05-07T08:47:15;101735.79;;;16.02;100.00
63281;BME280;49406;51.044;3.766;2023-05-07T08:49:50;101739.66;;;16.06;100.00
63281;BME280;49406;51.044;3.766;2023-05-07T08:52:25;101742.30;;;16.11;100.00
63281;BME280;49406;51.044;3.766;2023-05-07T08:55:01;101742.85;;;16.15;100.00
63281;BME280;49406;51.044;3.766;2023-05-07T08:57:36;101740.19;;;16.18;100.00
63281;BME280;49406;51.044;3.766;2023-05-07T09:00:12;101743.88;;;16.23;100.00
63281;BME280;49406;51.044;3.766;2023-05-07T09:02:46;101746.00;;;16.29;100.00
63281;BME280;49406;51.044;3.766;2023-05-07T09:05:20;101746.71;;;16.34;100.00
63281;BME280;49406;51.044;3.766;2023-05-07T09:07:54;101749.52;;;16.36;100.00
63281;BME280;49406;51.044;3.766;2023-05-07T09:10:31;101751.10;;;16.41;100.00
63281;BME280;49406;51.044;3.766;2023-05-07T09:13:06;101746.68;;;16.49;100.00
63281;BME280;49406;51.044;3.766;2023-05-07T09:15:41;101747.73;;;16.55;100.00
63281;BME280;49406;51.044;3.766;2023-05-07T09:18:15;101746.82;;;16.62;100.00
63281;BME280;49406;51.044;3.766;2023-05-07T09:20:49;101750.19;;;16.72;100.00
63281;BME280;49406;51.044;3.766;2023-05-07T09:23:24;101753.16;;;16.83;100.00
63281;BME280;49406;51.044;3.766;2023-05-07T09:26:02;101755.59;;;16.93;100.00
63281;BME280;49406;51.044;3.766;2023-05-07T09:28:39;101759.80;;;17.04;100.00
63281;BME280;49406;51.044;3.766;2023-05-07T09:31:15;101763.30;;;17.11;100.00
63281;BME280;49406;51.044;3.766;2023-05-07T09:33:49;101765.73;;;17.23;100.00
63281;BME280;49406;51.044;3.766;2023-05-07T09:36:23;101767.08;;;17.36;100.00
63281;BME280;49406;51.044;3.766;2023-05-07T09:39:00;101767.23;;;17.40;100.00
63281;BME280;49406;51.044;3.766;2023-05-07T09:41:44;101770.92;;;17.44;100.00
63281;BME280;49406;51.044;3.766;2023-05-07T09:44:19;101766.48;;;17.51;100.00
63281;BME280;49406;51.044;3.766;2023-05-07T09:46:55;101773.15;;;17.55;100.00
63281;BME280;49406;51.044;3.766;2023-05-07T09:49:30;101772.94;;;17.60;100.00
63281;BME280;49406;51.044;3.766;2023-05-07T09:52:07;101772.59;;;17.60;100.00
63281;BME280;49406;51.044;3.766;2023-05-07T09:54:44;101775.48;;;17.51;100.00
63281;BME280;49406;51.044;3.766;2023-05-07T09:57:20;101773.00;;;17.53;100.00
63281;BME280;49406;51.044;3.766;2023-05-07T09:59:56;101775.59;;;17.61;100.00
63281;BME280;49406;51.044;3.766;2023-05-07T10:02:33;101780.03;;;17.58;100.00
63281;BME280;49406;51.044;3.766;2023-05-07T10:05:10;101777.36;;;17.60;100.00
63281;BME280;49406;51.044;3.766;2023-05-07T10:07:44;101777.70;;;17.68;100.00
63281;BME280;49406;51.044;3.766;2023-05-07T10:10:19;101780.29;;;17.79;100.00
63281;BME280;49406;51.044;3.766;2023-05-07T10:12:55;101782.86;;;17.91;100.00
63281;BME280;49406;51.044;3.766;2023-05-07T10:15:28;101785.98;;;17.98;100.00
63281;BME280;49406;51.044;3.766;2023-05-07T10:18:04;101785.41;;;18.06;100.00
63281;BME280;49406;51.044;3.766;2023-05-07T10:20:40;101791.54;;;18.13;100.00
63281;BME280;49406;51.044;3.766;2023-05-07T10:23:21;101789.55;;;18.20;100.00
63281;BME280;49406;51.044;3.766;2023-05-07T10:25:58;101789.57;;;18.37;100.00
63281;BME280;49406;51.044;3.766;2023-05-07T10:28:36;101790.88;;;18.50;100.00
63281;BME280;49406;51.044;3.766;2023-05-07T10:31:34;101795.02;;;18.63;100.00
63281;BME280;49406;51.044;3.766;2023-05-07T10:34:16;101795.52;;;18.67;100.00
63281;BME280;49406;51.044;3.766;2023-05-07T10:36:55;101797.42;;;18.71;100.00
63281;BME280;49406;51.044;3.766;2023-05-07T10:39:31;101799.39;;;18.69;100.00
63281;BME280;49406;51.044;3.766;2023-05-07T10:42:12;101798.68;;;18.70;100.00
63281;BME280;49406;51.044;3.766;2023-05-07T10:44:47;101802.55;;;18.88;100.00
63281;BME280;49406;51.044;3.766;2023-05-07T10:47:21;101805.80;;;19.00;100.00
63281;BME280;49406;51.044;3.766;2023-05-07T10:50:22;101806.89;;;19.11;100.00
63281;BME280;49406;51.044;3.766;2023-05-07T10:53:23;101811.63;;;19.17;100.00
63281;BME280;49406;51.044;3.766;2023-05-07T10:56:25;101807.34;;;19.04;100.00
63281;BME280;49406;51.044;3.766;2023-05-07T11:02:05;101814.08;;;18.88;100.00
63281;BME280;49406;51.044;3.766;2023-05-07T11:04:41;101816.35;;;18.74;100.00
63281;BME280;49406;51.044;3.766;2023-05-07T11:07:25;101815.91;;;18.64;100.00
63281;BME280;49406;51.044;3.766;2023-05-07T11:10:01;101814.52;;;18.59;100.00
63281;BME280;49406;51.044;3.766;2023-05-07T11:13:02;101812.38;;;18.61;100.00
63281;BME280;49406;51.044;3.766;2023-05-07T11:15:47;101812.11;;;18.72;100.00
63281;BME280;49406;51.044;3.766;2023-05-07T11:18:20;101813.44;;;18.82;100.00
63281;BME280;49406;51.044;3.766;2023-05-07T11:20:57;101811.49;;;18.96;100.00
63281;BME280;49406;51.044;3.766;2023-05-07T11:23:56;101809.42;;;19.08;100.00
63281;BME280;49406;51.044;3.766;2023-05-07T11:26:43;101813.36;;;19.05;100.00
63281;BME280;49406;51.044;3.766;2023-05-07T11:29:19;101815.82;;;19.22;100.00
63281;BME280;49406;51.044;3.766;2023-05-07T11:31:55;101819.91;;;19.35;100.00
63281;BME280;49406;51.044;3.766;2023-05-07T11:34:30;101819.14;;;19.54;100.00
63281;BME280;49406;51.044;3.766;2023-05-07T11:37:05;101821.46;;;19.80;100.00
63281;BME280;49406;51.044;3.766;2023-05-07T11:39:40;101822.61;;;19.98;100.00
63281;BME280;49406;51.044;3.766;2023-05-07T11:42:29;101822.56;;;20.12;100.00
63281;BME280;49406;51.044;3.766;2023-05-07T11:45:06;101824.77;;;20.20;100.00
63281;BME280;49406;51.044;3.766;2023-05-07T11:47:42;101823.80;;;20.24;100.00
63281;BME280;49406;51.044;3.766;2023-05-07T11:50:17;101825.51;;;20.28;100.00
63281;BME280;49406;51.044;3.766;2023-05-07T11:52:51;101825.65;;;20.30;100.00
63281;BME280;49406;51.044;3.766;2023-05-07T11:55:26;101825.27;;;20.32;100.00
63281;BME280;49406;51.044;3.766;2023-05-07T11:58:01;101824.53;;;20.46;100.00
63281;BME280;49406;51.044;3.766;2023-05-07T12:00:36;101825.62;;;20.55;100.00
63281;BME280;49406;51.044;3.766;2023-05-07T12:03:10;101822.67;;;20.51;100.00
63281;BME280;49406;51.044;3.766;2023-05-07T12:05:45;101819.98;;;20.52;100.00
63281;BME280;49406;51.044;3.766;2023-05-07T12:08:20;101820.17;;;20.60;100.00
63281;BME280;49406;51.044;3.766;2023-05-07T12:10:55;101824.33;;;20.77;100.00
63281;BME280;49406;51.044;3.766;2023-05-07T12:13:29;101823.14;;;20.93;100.00
63281;BME280;49406;51.044;3.766;2023-05-07T12:16:06;101821.96;;;21.07;100.00
63281;BME280;49406;51.044;3.766;2023-05-07T12:18:39;101824.63;;;20.99;100.00
63281;BME280;49406;51.044;3.766;2023-05-07T12:21:14;101830.64;;;20.82;100.00
63281;BME280;49406;51.044;3.766;2023-05-07T12:23:49;101832.04;;;20.73;100.00
63281;BME280;49406;51.044;3.766;2023-05-07T12:26:23;101833.39;;;20.77;100.00
63281;BME280;49406;51.044;3.766;2023-05-07T12:28:58;101833.23;;;20.86;100.00
63281;BME280;49406;51.044;3.766;2023-05-07T12:31:32;101829.23;;;20.99;100.00
63281;BME280;49406;51.044;3.766;2023-05-07T12:34:07;101830.45;;;21.09;100.00
63281;BME280;49406;51.044;3.766;2023-05-07T12:36:42;101828.92;;;21.14;100.00
63281;BME280;49406;51.044;3.766;2023-05-07T12:39:16;101829.16;;;21.21;100.00
63281;BME280;49406;51.044;3.766;2023-05-07T12:41:57;101834.56;;;21.37;99.86
63281;BME280;49406;51.044;3.766;2023-05-07T12:44:33;101832.37;;;21.56;100.00
63281;BME280;49406;51.044;3.766;2023-05-07T12:47:08;101838.39;;;21.82;100.00
63281;BME280;49406;51.044;3.766;2023-05-07T12:49:42;101839.02;;;21.93;100.00
63281;BME280;49406;51.044;3.766;2023-05-07T12:52:18;101842.91;;;22.02;100.00
63281;BME280;49406;51.044;3.766;2023-05-07T12:54:54;101842.04;;;22.10;100.00
63281;BME280;49406;51.044;3.766;2023-05-07T12:57:28;101838.09;;;22.18;100.00
63281;BME280;49406;51.044;3.766;2023-05-07T13:00:03;101835.93;;;22.19;96.94
63281;BME280;49406;51.044;3.766;2023-05-07T13:02:41;101836.01;;;22.16;96.97
63281;BME280;49406;51.044;3.766;2023-05-07T13:05:17;101835.18;;;22.21;97.92
63281;BME280;49406;51.044;3.766;2023-05-07T13:07:55;101837.38;;;22.33;99.08
63281;BME280;49406;51.044;3.766;2023-05-07T13:10:30;101841.97;;;22.41;94.75
63281;BME280;49406;51.044;3.766;2023-05-07T13:13:04;101838.14;;;22.44;94.84
63281;BME280;49406;51.044;3.766;2023-05-07T13:15:38;101840.94;;;22.46;95.23
63281;BME280;49406;51.044;3.766;2023-05-07T13:18:13;101842.52;;;22.61;95.48
63281;BME280;49406;51.044;3.766;2023-05-07T13:20:46;101844.23;;;22.78;94.79
63281;BME280;49406;51.044;3.766;2023-05-07T13:23:20;101847.25;;;22.87;90.49
63281;BME280;49406;51.044;3.766;2023-05-07T13:25:55;101848.33;;;22.86;89.49